createdAt,value
2022-08-03T00:03:46.493Z,15.98
2022-08-03T00:08:53.711Z,15.92
2022-08-03T00:14:00.748Z,15.88
2022-08-03T00:19:07.892Z,15.82
2022-08-03T00:24:14.905Z,15.77
2022-08-03T00:29:21.899Z,15.69
2022-08-03T00:34:36.472Z,15.65
2022-08-03T00:39:55.842Z,15.64
2022-08-03T00:45:05.566Z,15.64
2022-08-03T00:50:13.826Z,15.61
2022-08-03T00:55:20.915Z,15.55
2022-08-03T01:00:29.223Z,15.50
2022-08-03T01:05:45.591Z,15.42
2022-08-03T01:11:04.221Z,15.36
2022-08-03T01:16:14.484Z,15.30
2022-08-03T01:21:29.330Z,15.23
2022-08-03T01:26:55.228Z,15.19
2022-08-03T01:32:58.715Z,15.13
2022-08-03T01:37:41.722Z,15.10
2022-08-03T01:42:50.812Z,15.07
2022-08-03T01:47:59.005Z,15.06
2022-08-03T01:53:07.965Z,15.06
2022-08-03T01:58:17.819Z,15.04
2022-08-03T02:03:25.595Z,15.05
2022-08-03T02:08:34.548Z,15.02
2022-08-03T02:13:43.432Z,15.03
2022-08-03T02:18:52.433Z,15.10
2022-08-03T02:23:59.719Z,15.14
2022-08-03T02:29:12.656Z,15.18
2022-08-03T02:34:24.767Z,15.18
2022-08-03T02:39:35.449Z,15.17
2022-08-03T02:44:47.804Z,15.19
2022-08-03T02:49:58.560Z,15.21
2022-08-03T02:55:08.376Z,15.25
2022-08-03T03:00:27.217Z,15.40
2022-08-03T03:05:52.289Z,15.54
2022-08-03T03:11:03.361Z,15.96
2022-08-03T03:16:13.146Z,16.18
2022-08-03T03:21:22.736Z,16.28
2022-08-03T03:26:30.078Z,16.50
2022-08-03T03:31:38.346Z,16.53
2022-08-03T03:36:45.319Z,16.50
2022-08-03T03:41:52.423Z,16.60
2022-08-03T03:47:00.270Z,16.77
2022-08-03T03:52:08.084Z,16.84
2022-08-03T03:57:15.041Z,16.79
2022-08-03T04:02:22.012Z,16.78
2022-08-03T04:07:52.572Z,16.75
2022-08-03T04:13:01.897Z,16.78
2022-08-03T04:18:12.664Z,16.92
2022-08-03T04:23:22.110Z,16.94
2022-08-03T04:28:32.074Z,16.90
2022-08-03T04:33:40.948Z,16.88
2022-08-03T04:38:57.106Z,16.80
2022-08-03T04:44:06.213Z,16.87
2022-08-03T04:49:15.012Z,16.90
2022-08-03T04:54:22.135Z,16.80
2022-08-03T04:59:29.117Z,16.74
2022-08-03T05:04:38.115Z,16.70
2022-08-03T05:09:52.517Z,16.76
2022-08-03T05:15:00.480Z,17.06
2022-08-03T05:20:09.271Z,17.18
2022-08-03T05:25:19.228Z,17.39
2022-08-03T05:30:33.464Z,17.50
2022-08-03T05:35:57.762Z,17.61
2022-08-03T05:41:22.683Z,17.83
2022-08-03T05:46:31.230Z,18.08
2022-08-03T05:51:38.403Z,18.36
2022-08-03T05:56:45.572Z,18.55
2022-08-03T06:01:52.885Z,18.83
2022-08-03T06:07:00.012Z,19.05
2022-08-03T06:12:11.181Z,19.34
2022-08-03T06:17:20.992Z,19.66
2022-08-03T06:22:28.224Z,19.95
2022-08-03T06:27:37.666Z,20.28
2022-08-03T06:32:44.821Z,20.52
2022-08-03T06:37:59.397Z,20.72
2022-08-03T06:43:12.452Z,20.94
2022-08-03T06:48:19.959Z,21.17
2022-08-03T06:53:26.957Z,21.34
2022-08-03T06:58:33.972Z,21.56
2022-08-03T07:03:52.137Z,21.79
2022-08-03T07:08:59.947Z,21.99
2022-08-03T07:14:07.614Z,22.20
2022-08-03T07:19:15.348Z,22.39
2022-08-03T07:24:22.314Z,22.57
2022-08-03T07:29:29.241Z,22.74
2022-08-03T07:34:41.669Z,22.92
2022-08-03T07:39:48.867Z,23.09
2022-08-03T07:44:56.014Z,23.27
2022-08-03T07:50:03.004Z,23.43
2022-08-03T07:55:11.561Z,23.60
2022-08-03T08:00:21.131Z,23.79
2022-08-03T08:05:36.334Z,24.01
2022-08-03T08:10:58.294Z,24.20
2022-08-03T08:16:06.497Z,24.41
2022-08-03T08:21:14.514Z,24.56
2022-08-03T08:26:21.835Z,24.86
2022-08-03T08:31:30.731Z,25.10
2022-08-03T08:36:40.996Z,25.33
2022-08-03T08:41:53.152Z,25.42
2022-08-03T08:47:04.059Z,25.56
2022-08-03T08:52:25.012Z,25.70
2022-08-03T08:57:43.289Z,25.89
2022-08-03T09:02:53.449Z,26.04
2022-08-03T09:08:01.114Z,26.19
2022-08-03T09:13:12.628Z,26.35
2022-08-03T09:18:32.851Z,26.49
2022-08-03T09:24:02.235Z,26.58
2022-08-03T09:29:15.380Z,26.85
2022-08-03T09:34:28.582Z,27.02
2022-08-03T09:39:41.771Z,27.14
2022-08-03T09:44:51.206Z,27.29
2022-08-03T09:50:02.615Z,27.46
2022-08-03T09:56:30.765Z,27.65
2022-08-03T10:00:56.901Z,27.78
2022-08-03T10:06:19.402Z,27.95
2022-08-03T10:11:40.779Z,28.08
2022-08-03T10:16:50.315Z,28.14
2022-08-03T10:22:02.525Z,28.28
2022-08-03T10:27:12.373Z,28.40
2022-08-03T10:32:23.288Z,28.59
2022-08-03T10:37:33.660Z,28.68
2022-08-03T10:42:42.631Z,28.79
2022-08-03T10:47:51.007Z,29.01
2022-08-03T10:53:01.985Z,29.06
2022-08-03T10:58:11.538Z,29.10
2022-08-03T11:03:18.725Z,29.18
2022-08-03T11:08:34.980Z,29.30
2022-08-03T11:14:00.145Z,29.59
2022-08-03T11:19:08.581Z,29.92
2022-08-03T11:24:54.463Z,30.22
2022-08-03T11:30:10.619Z,30.35
2022-08-03T11:35:19.880Z,30.60
2022-08-03T11:40:39.251Z,30.78
2022-08-03T11:45:59.592Z,31.17
2022-08-03T11:51:07.825Z,31.33
2022-08-03T11:56:14.734Z,31.48
2022-08-03T12:01:23.376Z,31.93
2022-08-03T12:06:30.479Z,33.89
2022-08-03T12:11:37.503Z,36.47
2022-08-03T12:16:58.038Z,38.33
2022-08-03T12:22:05.321Z,40.61
2022-08-03T12:27:12.364Z,41.77
2022-08-03T12:32:19.453Z,43.25
2022-08-03T12:37:26.756Z,44.50
2022-08-03T12:42:35.378Z,45.24
2022-08-03T12:47:57.768Z,46.04
2022-08-03T12:53:08.012Z,46.90
2022-08-03T12:58:34.545Z,46.67
2022-08-03T13:03:49.984Z,46.79
2022-08-03T13:09:08.606Z,47.53
2022-08-03T13:14:19.738Z,48.45
2022-08-03T13:19:27.715Z,48.46
2022-08-03T13:24:35.149Z,48.68
2022-08-03T13:29:44.106Z,49.79
2022-08-03T13:34:51.409Z,49.29
2022-08-03T13:40:02.391Z,49.12
2022-08-03T13:45:11.624Z,49.14
2022-08-03T13:50:19.325Z,49.36
2022-08-03T13:55:26.938Z,48.79
2022-08-03T14:00:36.711Z,48.18
2022-08-03T14:05:44.653Z,48.02
2022-08-03T14:10:51.671Z,48.28
2022-08-03T14:15:58.591Z,48.85
2022-08-03T14:21:07.557Z,48.57
2022-08-03T14:26:14.717Z,47.56
2022-08-03T14:32:10.799Z,47.78
2022-08-03T14:36:48.956Z,48.02
2022-08-03T14:41:56.026Z,48.57
2022-08-03T14:47:03.253Z,48.06
2022-08-03T14:52:11.227Z,48.01
2022-08-03T14:57:18.333Z,47.16
2022-08-03T15:02:25.678Z,45.81
2022-08-03T15:07:32.784Z,45.31
2022-08-03T15:12:39.616Z,46.04
2022-08-03T15:18:00.220Z,46.53
2022-08-03T15:23:07.866Z,46.97
2022-08-03T15:28:16.628Z,46.54
2022-08-03T15:33:25.434Z,46.84
2022-08-03T15:38:32.765Z,46.60
2022-08-03T15:43:41.386Z,46.13
2022-08-03T15:49:00.435Z,45.67
2022-08-03T15:54:08.741Z,44.91
2022-08-03T15:59:23.971Z,44.32
2022-08-03T16:04:34.711Z,44.70
2022-08-03T16:09:44.023Z,45.02
2022-08-03T16:14:53.751Z,44.71
2022-08-03T16:20:02.637Z,44.13
2022-08-03T16:25:16.208Z,43.49
2022-08-03T16:30:23.799Z,43.48
2022-08-03T16:35:31.140Z,43.35
2022-08-03T16:40:38.525Z,43.35
2022-08-03T16:45:45.711Z,43.06
2022-08-03T16:50:52.688Z,42.72
2022-08-03T16:55:59.720Z,42.27
2022-08-03T17:01:20.829Z,41.41
2022-08-03T17:06:33.960Z,41.33
2022-08-03T17:11:47.206Z,41.36
2022-08-03T17:16:58.285Z,40.66
2022-08-03T17:22:10.725Z,40.18
2022-08-03T17:27:23.226Z,39.47
2022-08-03T17:32:53.511Z,39.07
2022-08-03T17:38:08.982Z,38.48
2022-08-03T17:44:12.934Z,37.47
2022-08-03T17:48:46.330Z,36.20
2022-08-03T17:54:18.377Z,35.31
2022-08-03T17:59:52.328Z,34.36
2022-08-03T18:05:16.421Z,33.45
2022-08-03T18:10:27.115Z,32.64
2022-08-03T18:15:39.041Z,31.91
2022-08-03T18:20:48.749Z,31.17
2022-08-03T18:25:59.381Z,30.56
2022-08-03T18:31:11.636Z,29.99
2022-08-03T18:36:22.070Z,29.40
2022-08-03T18:41:37.727Z,28.89
2022-08-03T18:47:07.388Z,28.34
2022-08-03T18:52:30.511Z,27.94
2022-08-03T18:57:43.835Z,27.57
2022-08-03T19:03:02.492Z,27.25
2022-08-03T19:08:18.180Z,26.88
2022-08-03T19:13:36.081Z,26.51
2022-08-03T19:18:47.254Z,26.19
2022-08-03T19:24:01.044Z,25.86
2022-08-03T19:29:10.768Z,25.55
2022-08-03T19:34:27.138Z,25.22
2022-08-03T19:39:36.213Z,24.97
2022-08-03T19:44:45.661Z,24.74
2022-08-03T19:50:10.595Z,24.44
2022-08-03T19:55:21.477Z,24.16
2022-08-03T20:00:36.908Z,23.96
2022-08-03T20:05:52.289Z,23.77
2022-08-03T20:11:01.287Z,23.56
2022-08-03T20:16:08.644Z,23.40
2022-08-03T20:21:18.964Z,23.22
2022-08-03T20:26:29.762Z,23.11
2022-08-03T20:31:37.582Z,22.97
2022-08-03T20:36:44.726Z,22.83
2022-08-03T20:41:51.759Z,22.69
2022-08-03T20:47:04.111Z,22.51
2022-08-03T20:52:18.731Z,22.36
2022-08-03T20:57:26.966Z,22.19
2022-08-03T21:02:40.366Z,22.03
2022-08-03T21:08:05.993Z,21.90
2022-08-03T21:13:24.658Z,21.81
2022-08-03T21:18:37.948Z,21.67
2022-08-03T21:23:49.890Z,21.51
2022-08-03T21:28:58.309Z,21.36
2022-08-03T21:34:06.669Z,21.20
2022-08-03T21:39:13.796Z,21.03
2022-08-03T21:44:28.852Z,20.87
2022-08-03T21:50:04.786Z,20.75
2022-08-03T21:55:08.281Z,20.63
2022-08-03T22:00:26.441Z,20.52
2022-08-03T22:05:43.697Z,20.41
2022-08-03T22:10:51.206Z,20.27
2022-08-03T22:15:58.969Z,20.11
2022-08-03T22:21:06.983Z,19.97
2022-08-03T22:26:34.602Z,19.88
2022-08-03T22:31:58.115Z,19.78
2022-08-03T22:37:07.890Z,19.70
2022-08-03T22:42:16.210Z,19.63
2022-08-03T22:47:24.569Z,19.55
2022-08-03T22:52:31.900Z,19.45
2022-08-03T22:57:39.619Z,19.34
2022-08-03T23:02:48.904Z,19.23
2022-08-03T23:07:56.560Z,19.15
2022-08-03T23:13:04.179Z,19.05
2022-08-03T23:18:12.438Z,18.97
2022-08-03T23:23:20.720Z,18.91
2022-08-03T23:28:31.292Z,18.85
2022-08-03T23:33:42.283Z,18.78
2022-08-03T23:38:50.579Z,18.70
2022-08-03T23:44:00.317Z,18.60
2022-08-03T23:49:07.424Z,18.52
2022-08-03T23:54:25.284Z,18.47
2022-08-03T23:59:43.597Z,18.45
